Mandarin Eagle — S6BQ6 — position and weather

sailwx.info

Track history (hours):
 
Tides and Currents Weather Stations Pressure Air Temp Water Temp Dewpoint Dewpoint Depression Visibility Wind Speed Wind Dir Waves Ship Positions

Mandarin Eagle

Last reported at 2017-Oct-03 21:20 UTC. Time now 2017-Oct-22 12:16 UTC.
Position N 37°26' E 025°55'.
Warning: this ship's position is 18 days out of date.

Length 190 m; draft 11.8 m.

Type: Cargo ship. MMSI: 565892000.

Date/timePositionNaut miles runAvg speedWind from/ knotsBaromVisibWave heightAir tempDewpointWater temp
2017-Oct-03 21:20N 37°26' E 025°55'411.2
2017-Oct-03 21:00N 37°28' E 025°52'610.8
2017-Oct-03 20:26N 37°33' E 025°47'511.7
2017-Oct-03 20:00N 37°38' E 025°45'611.7
2017-Oct-03 19:30N 37°43' E 025°43'611.7
2017-Oct-03 19:00N 37°49' E 025°41'240 8.4
2017-Oct-02 14:17N 40°57' E 028°54'1 0.1
2017-Oct-02 08:01N 40°57' E 028°54'0 2.4
2017-Oct-02 07:57N 40°57' E 028°55'1 2.0
2017-Oct-02 07:30N 40°57' E 028°56'1 2.3
2017-Oct-02 07:00N 40°58' E 028°57'  
2017-Sep-25 06:07N 46°34' E 031°16'0 0.0
2017-Sep-25 05:58N 46°34' E 031°16'0 0.0
2017-Sep-25 05:28N 46°34' E 031°16'0 0.0
2017-Sep-25 04:52N 46°34' E 031°16'0 0.0
2017-Sep-25 04:19N 46°34' E 031°16'7 0.4
2017-Sep-24 09:57N 46°35' E 031°27'5 7.6
2017-Sep-24 09:20N 46°35' E 031°34'4 8.4
2017-Sep-24 08:53N 46°36' E 031°39'3 8.3
2017-Sep-24 08:30N 46°36' E 031°44'5 8.0
2017-Sep-24 07:56N 46°36' E 031°50'4 8.2
2017-Sep-24 07:30N 46°38' E 031°55'4 7.9
2017-Sep-24 07:00N 46°42' E 031°56'4 7.4
2017-Sep-24 06:30N 46°45' E 031°54'4 7.9
2017-Sep-24 06:00N 46°49' E 031°55'4 8.7
2017-Sep-24 05:30N 46°52' E 031°59'4 7.3
2017-Sep-24 05:00N 46°56' E 032°01'2 3.4
2017-Sep-24 04:30N 46°56' E 031°59'0 0.1
2017-Sep-24 03:59N 46°57' E 031°59'0 0.0
2017-Sep-24 03:29N 46°57' E 031°59'0 0.0
2017-Sep-24 02:59N 46°57' E 031°59'0 0.0
2017-Sep-24 02:29N 46°57' E 031°59'0 0.0
2017-Sep-24 01:59N 46°57' E 031°59'0 0.0
2017-Sep-24 01:29N 46°57' E 031°59'0 0.0
2017-Sep-24 00:59N 46°57' E 031°59'0 0.0
2017-Sep-24 00:29N 46°57' E 031°59'0 0.0
2017-Sep-23 23:59N 46°57' E 031°59'0 0.0
2017-Sep-23 23:29N 46°57' E 031°59'0 0.0
2017-Sep-23 22:59N 46°57' E 031°59'0 0.0
2017-Sep-23 22:29N 46°57' E 031°59'0 0.0
2017-Sep-23 21:59N 46°57' E 031°59'0 0.0
2017-Sep-23 21:29N 46°57' E 031°59'  
Track history (hours):
 
Tides and Currents Weather Stations Pressure Air Temp Water Temp Dewpoint Dewpoint Depression Visibility Wind Speed Wind Dir Waves Ship Positions

Mandarin Eagle

Last reported at 2017-Oct-03 21:20 UTC. Time now 2017-Oct-22 12:16 UTC.
Position N 37°26' E 025°55'.
Warning: this ship's position is 18 days out of date.

Length 190 m; draft 11.8 m.

Type: Cargo ship. MMSI: 565892000.

Date/timePositionNaut miles runAvg speedWind from/ knotsBaromVisibWave heightAir tempDewpointWater temp
2017-Oct-03 21:20N 37°26' E 025°55'411.2
2017-Oct-03 21:00N 37°28' E 025°52'610.8
2017-Oct-03 20:26N 37°33' E 025°47'511.7
2017-Oct-03 20:00N 37°38' E 025°45'611.7
2017-Oct-03 19:30N 37°43' E 025°43'611.7
2017-Oct-03 19:00N 37°49' E 025°41'240 8.4
2017-Oct-02 14:17N 40°57' E 028°54'1 0.1
2017-Oct-02 08:01N 40°57' E 028°54'0 2.4
2017-Oct-02 07:57N 40°57' E 028°55'1 2.0
2017-Oct-02 07:30N 40°57' E 028°56'1 2.3
2017-Oct-02 07:00N 40°58' E 028°57'  
2017-Sep-25 06:07N 46°34' E 031°16'0 0.0
2017-Sep-25 05:58N 46°34' E 031°16'0 0.0
2017-Sep-25 05:28N 46°34' E 031°16'0 0.0
2017-Sep-25 04:52N 46°34' E 031°16'0 0.0
2017-Sep-25 04:19N 46°34' E 031°16'7 0.4
2017-Sep-24 09:57N 46°35' E 031°27'5 7.6
2017-Sep-24 09:20N 46°35' E 031°34'4 8.4
2017-Sep-24 08:53N 46°36' E 031°39'3 8.3
2017-Sep-24 08:30N 46°36' E 031°44'5 8.0
2017-Sep-24 07:56N 46°36' E 031°50'4 8.2
2017-Sep-24 07:30N 46°38' E 031°55'4 7.9
2017-Sep-24 07:00N 46°42' E 031°56'4 7.4
2017-Sep-24 06:30N 46°45' E 031°54'4 7.9
2017-Sep-24 06:00N 46°49' E 031°55'4 8.7
2017-Sep-24 05:30N 46°52' E 031°59'4 7.3
2017-Sep-24 05:00N 46°56' E 032°01'2 3.4
2017-Sep-24 04:30N 46°56' E 031°59'0 0.1
2017-Sep-24 03:59N 46°57' E 031°59'0 0.0
2017-Sep-24 03:29N 46°57' E 031°59'0 0.0
2017-Sep-24 02:59N 46°57' E 031°59'0 0.0
2017-Sep-24 02:29N 46°57' E 031°59'0 0.0
2017-Sep-24 01:59N 46°57' E 031°59'0 0.0
2017-Sep-24 01:29N 46°57' E 031°59'0 0.0
2017-Sep-24 00:59N 46°57' E 031°59'0 0.0
2017-Sep-24 00:29N 46°57' E 031°59'0 0.0
2017-Sep-23 23:59N 46°57' E 031°59'0 0.0
2017-Sep-23 23:29N 46°57' E 031°59'0 0.0
2017-Sep-23 22:59N 46°57' E 031°59'0 0.0
2017-Sep-23 22:29N 46°57' E 031°59'0 0.0
2017-Sep-23 21:59N 46°57' E 031°59'0 0.0
2017-Sep-23 21:29N 46°57' E 031°59'  

Dump ship's entire track history